Time,TemperatureF,DewpointF,PressureIn,WindDirection,WindDirectionDegrees,WindSpeedMPH,WindSpeedGustMPH,Humidity,HourlyPrecipIn,Conditions,Clouds,dailyrainin,SoftwareType,DateUTC
2013-08-28 00:03:00,48.2,47.0,29.93,North,349,2.0,2.0,94,0.00,,,0.00,weatherlink.com 1.10,2013-08-28 06:03:00,
2013-08-28 00:18:00,48.9,47.0,29.93,North,349,2.0,4.0,92,0.00,,,0.00,weatherlink.com 1.10,2013-08-28 06:18:00,
2013-08-28 00:33:00,49.0,47.0,29.94,SSW,205,2.0,4.0,91,0.00,,,0.00,weatherlink.com 1.10,2013-08-28 06:33:00,
2013-08-28 00:48:00,48.5,46.0,29.94,South,174,0.0,1.0,92,0.00,,,0.00,weatherlink.com 1.10,2013-08-28 06:48:00,
2013-08-28 01:03:00,48.6,47.0,29.94,ESE,105,1.0,2.0,93,0.00,,,0.00,weatherlink.com 1.10,2013-08-28 07:03:00,
2013-08-28 01:18:00,48.7,47.0,29.94,ESE,106,0.0,0.0,93,0.00,,,0.00,weatherlink.com 1.10,2013-08-28 07:18:00,
2013-08-28 01:33:00,48.5,47.0,29.94,ESE,109,0.0,0.0,93,0.00,,,0.00,weatherlink.com 1.10,2013-08-28 07:33:00,
2013-08-28 01:48:00,48.1,47.0,29.93,SSW,210,0.0,3.0,94,0.00,,,0.00,weatherlink.com 1.10,2013-08-28 07:48:00,
2013-08-28 02:03:00,47.7,46.0,29.94,SSW,210,0.0,0.0,94,0.00,,,0.00,weatherlink.com 1.10,2013-08-28 08:03:00,
2013-08-28 02:19:00,47.6,46.0,29.93,NE,44,0.0,1.0,94,0.00,,,0.00,weatherlink.com 1.10,2013-08-28 08:19:00,
2013-08-28 02:49:00,46.4,45.0,29.93,NNW,327,0.0,0.0,94,0.00,,,0.00,weatherlink.com 1.10,2013-08-28 08:49:00,
2013-08-28 03:04:00,46.3,45.0,29.94,NNW,334,2.0,2.0,95,0.00,,,0.00,weatherlink.com 1.10,2013-08-28 09:04:00,
2013-08-28 03:19:00,46.1,45.0,29.93,NW,316,0.0,2.0,95,0.00,,,0.00,weatherlink.com 1.10,2013-08-28 09:19:00,
2013-08-28 03:34:00,46.1,44.0,29.93,NNW,333,0.0,2.0,93,0.00,,,0.00,weatherlink.com 1.10,2013-08-28 09:34:00,
2013-08-28 03:49:00,46.2,44.0,29.94,NNE,12,0.0,0.0,93,0.00,,,0.00,weatherlink.com 1.10,2013-08-28 09:49:00,
2013-08-28 04:04:00,45.7,44.0,29.94,NW,316,1.0,1.0,93,0.00,,,0.00,weatherlink.com 1.10,2013-08-28 10:04:00,
2013-08-28 04:19:00,45.4,43.0,29.94,WNW,287,0.0,2.0,92,0.00,,,0.00,weatherlink.com 1.10,2013-08-28 10:19:00,
2013-08-28 04:34:00,45.0,43.0,29.94,NW,308,0.0,0.0,94,0.00,,,0.00,weatherlink.com 1.10,2013-08-28 10:34:00,
2013-08-28 04:49:00,45.0,43.0,29.94,NW,325,0.0,0.0,94,0.00,,,0.00,weatherlink.com 1.10,2013-08-28 10:49:00,
2013-08-28 05:04:00,44.3,43.0,29.95,NW,325,0.0,0.0,94,0.00,,,0.00,weatherlink.com 1.10,2013-08-28 11:04:00,
2013-08-28 05:19:00,44.0,43.0,29.95,NW,324,0.0,0.0,95,0.00,,,0.00,weatherlink.com 1.10,2013-08-28 11:19:00,
2013-08-28 05:34:00,43.6,42.0,29.95,NW,325,0.0,0.0,95,0.00,,,0.00,weatherlink.com 1.10,2013-08-28 11:34:00,
2013-08-28 05:49:00,43.2,42.0,29.95,NW,324,0.0,0.0,95,0.00,,,0.00,weatherlink.com 1.10,2013-08-28 11:49:00,
2013-08-28 06:04:00,43.2,42.0,29.95,NW,324,0.0,0.0,96,0.01,,,0.01,weatherlink.com 1.10,2013-08-28 12:04:00,
2013-08-28 06:19:00,42.4,41.0,29.96,NW,325,0.0,0.0,95,0.01,,,0.01,weatherlink.com 1.10,2013-08-28 12:19:00,
2013-08-28 06:34:00,42.3,41.0,29.96,NW,325,0.0,0.0,96,0.01,,,0.01,weatherlink.com 1.10,2013-08-28 12:34:00,
2013-08-28 06:49:00,42.4,41.0,29.96,NW,324,0.0,0.0,96,0.01,,,0.01,weatherlink.com 1.10,2013-08-28 12:49:00,
2013-08-28 07:04:00,41.9,41.0,29.96,NW,325,0.0,0.0,96,0.00,,,0.01,weatherlink.com 1.10,2013-08-28 13:04:00,
2013-08-28 07:19:00,42.9,42.0,29.97,NNW,337,0.0,0.0,96,0.00,,,0.01,weatherlink.com 1.10,2013-08-28 13:19:00,
2013-08-28 07:34:00,44.8,44.0,29.98,NNW,338,0.0,0.0,95,0.00,,,0.01,weatherlink.com 1.10,2013-08-28 13:34:00,
2013-08-28 07:49:00,46.9,45.0,29.97,NNW,342,0.0,1.0,92,0.00,,,0.01,weatherlink.com 1.10,2013-08-28 13:49:00,
2013-08-28 08:04:00,49.1,45.0,29.97,NNW,346,0.0,0.0,87,0.00,,,0.01,weatherlink.com 1.10,2013-08-28 14:04:00,
2013-08-28 08:19:00,51.6,47.0,29.97,North,9,0.0,0.0,84,0.00,,,0.01,weatherlink.com 1.10,2013-08-28 14:19:00,
2013-08-28 08:34:00,53.0,46.0,29.97,SSW,212,0.0,0.0,78,0.00,,,0.01,weatherlink.com 1.10,2013-08-28 14:34:00,
2013-08-28 08:49:00,53.4,47.0,29.97,SE,136,0.0,0.0,80,0.00,,,0.01,weatherlink.com 1.10,2013-08-28 14:49:00,
2013-08-28 09:04:00,55.9,48.0,29.96,SE,128,0.0,0.0,74,0.00,,,0.01,weatherlink.com 1.10,2013-08-28 15:04:00,
2013-08-28 09:19:00,56.0,48.0,29.96,South,171,0.0,0.0,74,0.00,,,0.01,weatherlink.com 1.10,2013-08-28 15:19:00,
2013-08-28 09:35:00,57.8,47.0,29.96,ESE,108,0.0,0.0,68,0.00,,,0.01,weatherlink.com 1.10,2013-08-28 15:35:00,
2013-08-28 09:50:00,57.8,48.0,29.95,North,1,0.0,3.0,70,0.00,,,0.01,weatherlink.com 1.10,2013-08-28 15:50:00,
2013-08-28 10:05:00,59.9,50.0,29.95,East,92,2.0,2.0,69,0.00,,,0.01,weatherlink.com 1.10,2013-08-28 16:05:00,
2013-08-28 10:20:00,60.1,49.0,29.94,ESE,123,1.0,3.0,68,0.00,,,0.01,weatherlink.com 1.10,2013-08-28 16:20:00,
2013-08-28 10:35:00,61.2,50.0,29.94,NE,52,1.0,3.0,67,0.00,,,0.01,weatherlink.com 1.10,2013-08-28 16:35:00,
2013-08-28 10:50:00,62.8,51.0,29.93,SE,125,0.0,2.0,65,0.00,,,0.01,weatherlink.com 1.10,2013-08-28 16:50:00,
2013-08-28 11:20:00,67.2,51.0,29.92,East,84,0.0,3.0,57,0.00,,,0.01,weatherlink.com 1.10,2013-08-28 17:20:00,
2013-08-28 11:35:00,67.3,52.0,29.91,ENE,75,2.0,4.0,58,0.00,,,0.01,weatherlink.com 1.10,2013-08-28 17:35:00,
2013-08-28 12:05:00,71.0,49.0,29.89,SSE,158,0.0,4.0,45,0.00,,,0.01,weatherlink.com 1.10,2013-08-28 18:05:00,
2013-08-28 12:20:00,72.3,49.0,29.89,East,101,2.0,5.0,44,0.00,,,0.01,weatherlink.com 1.10,2013-08-28 18:20:00,
2013-08-28 12:35:00,73.5,48.0,29.88,SSW,193,2.0,5.0,41,0.00,,,0.01,weatherlink.com 1.10,2013-08-28 18:35:00,
2013-08-28 12:50:00,73.4,45.0,29.87,ESE,120,3.0,6.0,37,0.00,,,0.01,weatherlink.com 1.10,2013-08-28 18:50:00,
2013-08-28 13:05:00,74.3,46.0,29.87,SSE,156,6.0,9.0,37,0.00,,,0.01,weatherlink.com 1.10,2013-08-28 19:05:00,
2013-08-28 13:21:00,74.4,46.0,29.86,SSE,150,5.0,8.0,37,0.00,,,0.01,weatherlink.com 1.10,2013-08-28 19:21:00,
2013-08-28 13:36:00,75.0,42.0,29.86,SW,215,2.0,8.0,31,0.00,,,0.01,weatherlink.com 1.10,2013-08-28 19:36:00,
2013-08-28 13:51:00,75.5,43.0,29.85,SW,235,3.0,7.0,31,0.00,,,0.01,weatherlink.com 1.10,2013-08-28 19:51:00,
2013-08-28 14:06:00,75.8,40.0,29.85,ESE,102,0.0,4.0,28,0.00,,,0.01,weatherlink.com 1.10,2013-08-28 20:06:00,
2013-08-28 14:36:00,76.2,40.0,29.84,East,100,1.0,3.0,27,0.00,,,0.01,weatherlink.com 1.10,2013-08-28 20:36:00,
2013-08-28 14:51:00,76.8,39.0,29.84,NW,315,1.0,3.0,26,0.00,,,0.01,weatherlink.com 1.10,2013-08-28 20:51:00,
2013-08-28 15:06:00,76.0,39.0,29.83,SW,227,0.0,6.0,26,0.00,,,0.01,weatherlink.com 1.10,2013-08-28 21:06:00,
2013-08-28 15:21:00,76.7,45.0,29.82,South,173,9.0,13.0,32,0.00,,,0.01,weatherlink.com 1.10,2013-08-28 21:21:00,
2013-08-28 15:36:00,76.0,49.0,29.82,SSW,204,7.0,17.0,38,0.00,,,0.01,weatherlink.com 1.10,2013-08-28 21:36:00,
2013-08-28 15:51:00,74.1,49.0,29.82,ESE,102,11.0,14.0,42,0.00,,,0.01,weatherlink.com 1.10,2013-08-28 21:51:00,
2013-08-28 16:06:00,73.8,46.0,29.81,ESE,105,8.0,13.0,37,0.00,,,0.01,weatherlink.com 1.10,2013-08-28 22:06:00,
2013-08-28 16:21:00,74.3,45.0,29.81,ESE,102,6.0,11.0,35,0.00,,,0.01,weatherlink.com 1.10,2013-08-28 22:21:00,
2013-08-28 16:36:00,74.2,44.0,29.80,SE,134,7.0,13.0,34,0.00,,,0.01,weatherlink.com 1.10,2013-08-28 22:36:00,
2013-08-28 16:51:00,71.2,47.0,29.80,SSE,160,6.0,12.0,42,0.00,,,0.01,weatherlink.com 1.10,2013-08-28 22:51:00,
2013-08-28 17:06:00,70.2,45.0,29.80,SE,146,5.0,9.0,40,0.00,,,0.01,weatherlink.com 1.10,2013-08-28 23:06:00,
2013-08-28 17:21:00,69.4,48.0,29.80,SSW,210,1.0,4.0,46,0.00,,,0.01,weatherlink.com 1.10,2013-08-28 23:21:00,
2013-08-28 17:36:00,68.3,47.0,29.81,WNW,302,8.0,15.0,47,0.00,,,0.01,weatherlink.com 1.10,2013-08-28 23:36:00,
2013-08-28 17:51:00,66.5,47.0,29.82,NW,319,10.0,15.0,49,0.00,,,0.01,weatherlink.com 1.10,2013-08-28 23:51:00,
2013-08-28 18:06:00,65.5,46.0,29.83,NW,321,3.0,12.0,50,0.00,,,0.01,weatherlink.com 1.10,2013-08-29 00:06:00,
2013-08-28 18:21:00,65.4,47.0,29.84,NW,318,10.0,13.0,51,0.00,,,0.01,weatherlink.com 1.10,2013-08-29 00:21:00,
2013-08-28 18:36:00,65.0,47.0,29.86,WNW,288,10.0,12.0,52,0.00,,,0.01,weatherlink.com 1.10,2013-08-29 00:36:00,
2013-08-28 18:52:00,64.4,47.0,29.86,NW,325,8.0,12.0,54,0.00,,,0.01,weatherlink.com 1.10,2013-08-29 00:52:00,
2013-08-28 19:06:00,63.9,47.0,29.87,NW,321,5.0,10.0,55,0.00,,,0.01,weatherlink.com 1.10,2013-08-29 01:06:00,
2013-08-28 19:21:00,61.9,48.0,29.87,NNW,340,3.0,8.0,60,0.00,,,0.01,weatherlink.com 1.10,2013-08-29 01:21:00,
2013-08-28 19:36:00,60.0,48.0,29.88,NW,311,8.0,8.0,65,0.00,,,0.01,weatherlink.com 1.10,2013-08-29 01:36:00,
2013-08-28 19:51:00,58.5,48.0,29.88,NW,325,5.0,8.0,69,0.00,,,0.01,weatherlink.com 1.10,2013-08-29 01:51:00,
2013-08-28 20:06:00,56.9,49.0,29.88,NNW,333,4.0,9.0,75,0.00,,,0.01,weatherlink.com 1.10,2013-08-29 02:06:00,
2013-08-28 20:21:00,56.5,49.0,29.88,NNW,327,5.0,8.0,77,0.00,,,0.01,weatherlink.com 1.10,2013-08-29 02:21:00,
2013-08-28 20:36:00,56.6,49.0,29.89,NW,322,6.0,8.0,75,0.00,,,0.01,weatherlink.com 1.10,2013-08-29 02:36:00,
2013-08-28 20:51:00,56.3,48.0,29.89,NNW,327,4.0,6.0,75,0.00,,,0.01,weatherlink.com 1.10,2013-08-29 02:51:00,
2013-08-28 21:06:00,54.7,48.0,29.90,WNW,300,3.0,6.0,77,0.00,,,0.01,weatherlink.com 1.10,2013-08-29 03:06:00,
2013-08-28 21:21:00,53.6,48.0,29.91,NW,314,8.0,8.0,81,0.00,,,0.01,weatherlink.com 1.10,2013-08-29 03:21:00,
2013-08-28 21:36:00,53.3,48.0,29.91,NW,311,5.0,7.0,81,0.00,,,0.01,weatherlink.com 1.10,2013-08-29 03:36:00,
2013-08-28 21:51:00,53.0,48.0,29.92,NW,319,6.0,8.0,82,0.00,,,0.01,weatherlink.com 1.10,2013-08-29 03:51:00,
2013-08-28 22:07:00,53.1,47.0,29.92,NW,319,2.0,6.0,81,0.00,,,0.01,weatherlink.com 1.10,2013-08-29 04:07:00,
2013-08-28 22:21:00,52.1,47.0,29.93,North,9,2.0,4.0,83,0.00,,,0.01,weatherlink.com 1.10,2013-08-29 04:21:00,
2013-08-28 22:36:00,51.0,47.0,29.93,NW,322,2.0,6.0,85,0.00,,,0.01,weatherlink.com 1.10,2013-08-29 04:36:00,
2013-08-28 22:51:00,50.4,46.0,29.95,NW,322,0.0,4.0,86,0.00,,,0.01,weatherlink.com 1.10,2013-08-29 04:51:00,
2013-08-28 23:06:00,49.7,46.0,29.95,NW,312,2.0,2.0,87,0.00,,,0.01,weatherlink.com 1.10,2013-08-29 05:06:00,
2013-08-28 23:21:00,50.1,46.0,29.95,NNW,330,5.0,7.0,87,0.00,,,0.01,weatherlink.com 1.10,2013-08-29 05:21:00,
2013-08-28 23:36:00,50.0,46.0,29.95,NW,325,4.0,5.0,87,0.00,,,0.01,weatherlink.com 1.10,2013-08-29 05:36:00,
2013-08-28 23:51:00,49.5,46.0,29.96,NW,305,1.0,3.0,87,0.00,,,0.01,weatherlink.com 1.10,2013-08-29 05:51:00,